sensor_id;sensor_type;location;lat;lon;timestamp;P1;durP1;ratioP1;P2;durP2;ratioP2
63693;SDS011;49839;51.798;10.954;2023-02-28T00:01:22;5.68;;;2.45;;
63693;SDS011;49839;51.798;10.954;2023-02-28T00:03:49;5.93;;;2.75;;
63693;SDS011;49839;51.798;10.954;2023-02-28T00:06:17;6.60;;;2.70;;
63693;SDS011;49839;51.798;10.954;2023-02-28T00:08:44;6.57;;;2.40;;
63693;SDS011;49839;51.798;10.954;2023-02-28T00:11:13;7.03;;;2.92;;
63693;SDS011;49839;51.798;10.954;2023-02-28T00:13:41;6.80;;;2.80;;
63693;SDS011;49839;51.798;10.954;2023-02-28T00:16:10;6.30;;;2.15;;
63693;SDS011;49839;51.798;10.954;2023-02-28T00:18:39;4.65;;;1.83;;
63693;SDS011;49839;51.798;10.954;2023-02-28T00:21:07;3.63;;;1.50;;
63693;SDS011;49839;51.798;10.954;2023-02-28T00:23:34;5.40;;;2.22;;
63693;SDS011;49839;51.798;10.954;2023-02-28T00:26:02;4.65;;;1.92;;
63693;SDS011;49839;51.798;10.954;2023-02-28T00:28:29;4.30;;;1.90;;
63693;SDS011;49839;51.798;10.954;2023-02-28T00:30:57;7.70;;;2.17;;
63693;SDS011;49839;51.798;10.954;2023-02-28T00:33:27;6.63;;;1.70;;
63693;SDS011;49839;51.798;10.954;2023-02-28T00:36:01;4.60;;;1.70;;
63693;SDS011;49839;51.798;10.954;2023-02-28T00:38:29;5.57;;;2.03;;
63693;SDS011;49839;51.798;10.954;2023-02-28T00:40:56;6.95;;;2.97;;
63693;SDS011;49839;51.798;10.954;2023-02-28T00:43:24;6.55;;;2.72;;
63693;SDS011;49839;51.798;10.954;2023-02-28T00:45:52;7.88;;;3.25;;
63693;SDS011;49839;51.798;10.954;2023-02-28T00:48:19;9.63;;;4.10;;
63693;SDS011;49839;51.798;10.954;2023-02-28T00:50:49;12.63;;;5.28;;
63693;SDS011;49839;51.798;10.954;2023-02-28T00:53:16;10.27;;;4.43;;
63693;SDS011;49839;51.798;10.954;2023-02-28T00:55:44;11.07;;;4.43;;
63693;SDS011;49839;51.798;10.954;2023-02-28T00:58:11;12.07;;;4.93;;
63693;SDS011;49839;51.798;10.954;2023-02-28T01:00:38;12.95;;;5.20;;
63693;SDS011;49839;51.798;10.954;2023-02-28T01:03:06;9.98;;;4.78;;
63693;SDS011;49839;51.798;10.954;2023-02-28T01:05:33;11.35;;;4.60;;
63693;SDS011;49839;51.798;10.954;2023-02-28T01:08:02;11.95;;;4.10;;
63693;SDS011;49839;51.798;10.954;2023-02-28T01:10:29;7.70;;;3.50;;
63693;SDS011;49839;51.798;10.954;2023-02-28T01:12:57;9.45;;;4.07;;
63693;SDS011;49839;51.798;10.954;2023-02-28T01:15:25;9.27;;;3.75;;
63693;SDS011;49839;51.798;10.954;2023-02-28T01:17:52;17.52;;;7.43;;
63693;SDS011;49839;51.798;10.954;2023-02-28T01:20:19;16.30;;;6.50;;
63693;SDS011;49839;51.798;10.954;2023-02-28T01:22:47;14.93;;;5.88;;
63693;SDS011;49839;51.798;10.954;2023-02-28T01:25:16;14.02;;;5.05;;
63693;SDS011;49839;51.798;10.954;2023-02-28T01:27:43;13.23;;;4.60;;
63693;SDS011;49839;51.798;10.954;2023-02-28T01:30:11;7.38;;;3.10;;
63693;SDS011;49839;51.798;10.954;2023-02-28T01:32:39;9.57;;;3.05;;
63693;SDS011;49839;51.798;10.954;2023-02-28T01:35:06;9.40;;;2.97;;
63693;SDS011;49839;51.798;10.954;2023-02-28T01:37:33;7.22;;;2.53;;
63693;SDS011;49839;51.798;10.954;2023-02-28T01:40:01;8.10;;;3.03;;
63693;SDS011;49839;51.798;10.954;2023-02-28T01:42:30;6.68;;;2.60;;
63693;SDS011;49839;51.798;10.954;2023-02-28T01:45:01;6.88;;;2.47;;
63693;SDS011;49839;51.798;10.954;2023-02-28T01:47:29;6.18;;;2.42;;
63693;SDS011;49839;51.798;10.954;2023-02-28T01:49:58;6.45;;;2.30;;
63693;SDS011;49839;51.798;10.954;2023-02-28T01:52:26;5.28;;;1.92;;
63693;SDS011;49839;51.798;10.954;2023-02-28T01:54:54;6.97;;;2.00;;
63693;SDS011;49839;51.798;10.954;2023-02-28T01:57:23;5.53;;;1.80;;
63693;SDS011;49839;51.798;10.954;2023-02-28T01:59:53;5.82;;;1.92;;
63693;SDS011;49839;51.798;10.954;2023-02-28T02:02:21;5.35;;;2.40;;
63693;SDS011;49839;51.798;10.954;2023-02-28T02:04:51;7.32;;;2.97;;
63693;SDS011;49839;51.798;10.954;2023-02-28T02:07:20;7.05;;;2.38;;
63693;SDS011;49839;51.798;10.954;2023-02-28T02:09:48;5.30;;;2.03;;
63693;SDS011;49839;51.798;10.954;2023-02-28T02:12:20;5.35;;;2.05;;
63693;SDS011;49839;51.798;10.954;2023-02-28T02:14:55;6.13;;;2.00;;
63693;SDS011;49839;51.798;10.954;2023-02-28T02:17:28;5.60;;;2.10;;
63693;SDS011;49839;51.798;10.954;2023-02-28T02:22:51;5.32;;;1.80;;
63693;SDS011;49839;51.798;10.954;2023-02-28T02:25:28;5.80;;;2.58;;
63693;SDS011;49839;51.798;10.954;2023-02-28T02:30:39;7.45;;;2.13;;
63693;SDS011;49839;51.798;10.954;2023-02-28T02:33:13;4.88;;;2.05;;
63693;SDS011;49839;51.798;10.954;2023-02-28T02:35:48;3.97;;;1.63;;
63693;SDS011;49839;51.798;10.954;2023-02-28T02:38:20;4.35;;;1.77;;
63693;SDS011;49839;51.798;10.954;2023-02-28T02:40:55;6.47;;;1.90;;
63693;SDS011;49839;51.798;10.954;2023-02-28T02:43:25;4.22;;;1.75;;
63693;SDS011;49839;51.798;10.954;2023-02-28T02:48:20;4.43;;;1.88;;
63693;SDS011;49839;51.798;10.954;2023-02-28T02:50:52;3.97;;;1.50;;
63693;SDS011;49839;51.798;10.954;2023-02-28T02:53:21;4.63;;;1.50;;
63693;SDS011;49839;51.798;10.954;2023-02-28T02:55:50;3.80;;;1.65;;
63693;SDS011;49839;51.798;10.954;2023-02-28T02:58:22;5.32;;;1.58;;
